sensor_id;sensor_type;location;lat;lon;timestamp;pressure;altitude;pressure_sealevel;temperature;humidity
47985;BME280;33753;52.912;-7.342;2023-02-14T00:01:51;101269.28;;;6.12;100.00
47985;BME280;33753;52.912;-7.342;2023-02-14T00:04:19;101262.06;;;6.13;100.00
47985;BME280;33753;52.912;-7.342;2023-02-14T00:06:47;101257.69;;;6.12;100.00
47985;BME280;33753;52.912;-7.342;2023-02-14T00:09:16;101267.44;;;6.13;100.00
47985;BME280;33753;52.912;-7.342;2023-02-14T00:11:46;101256.44;;;6.16;100.00
47985;BME280;33753;52.912;-7.342;2023-02-14T00:14:14;101259.75;;;6.19;100.00
47985;BME280;33753;52.912;-7.342;2023-02-14T00:17:00;101253.03;;;6.25;100.00
47985;BME280;33753;52.912;-7.342;2023-02-14T00:19:28;101252.06;;;6.26;100.00
47985;BME280;33753;52.912;-7.342;2023-02-14T00:21:57;101255.09;;;6.21;100.00
47985;BME280;33753;52.912;-7.342;2023-02-14T00:24:25;101251.72;;;6.19;100.00
47985;BME280;33753;52.912;-7.342;2023-02-14T00:26:55;101259.03;;;6.17;100.00
47985;BME280;33753;52.912;-7.342;2023-02-14T00:29:23;101252.22;;;6.13;100.00
47985;BME280;33753;52.912;-7.342;2023-02-14T00:31:52;101261.59;;;6.08;100.00
47985;BME280;33753;52.912;-7.342;2023-02-14T00:34:22;101262.56;;;6.07;100.00
47985;BME280;33753;52.912;-7.342;2023-02-14T00:36:51;101264.53;;;6.04;100.00
47985;BME280;33753;52.912;-7.342;2023-02-14T00:39:20;101256.59;;;6.03;100.00
47985;BME280;33753;52.912;-7.342;2023-02-14T00:41:48;101253.81;;;6.04;100.00
47985;BME280;33753;52.912;-7.342;2023-02-14T00:44:18;101243.41;;;6.11;100.00
47985;BME280;33753;52.912;-7.342;2023-02-14T00:46:46;101248.53;;;6.14;100.00
47985;BME280;33753;52.912;-7.342;2023-02-14T00:49:14;101242.31;;;6.14;100.00
47985;BME280;33753;52.912;-7.342;2023-02-14T00:51:42;101238.53;;;6.16;100.00
47985;BME280;33753;52.912;-7.342;2023-02-14T00:54:10;101240.13;;;6.19;100.00
47985;BME280;33753;52.912;-7.342;2023-02-14T00:56:38;101239.13;;;6.20;100.00
47985;BME280;33753;52.912;-7.342;2023-02-14T00:59:08;101242.94;;;6.17;100.00
47985;BME280;33753;52.912;-7.342;2023-02-14T01:01:37;101245.97;;;6.13;100.00
47985;BME280;33753;52.912;-7.342;2023-02-14T01:04:07;101245.97;;;6.13;100.00
47985;BME280;33753;52.912;-7.342;2023-02-14T01:06:37;101253.06;;;6.14;100.00
47985;BME280;33753;52.912;-7.342;2023-02-14T01:09:05;101259.03;;;6.17;100.00
47985;BME280;33753;52.912;-7.342;2023-02-14T01:11:33;101235.47;;;6.21;100.00
47985;BME280;33753;52.912;-7.342;2023-02-14T01:14:02;101230.31;;;6.29;100.00
47985;BME280;33753;52.912;-7.342;2023-02-14T01:16:30;101219.06;;;6.35;100.00
47985;BME280;33753;52.912;-7.342;2023-02-14T01:19:00;101219.69;;;6.39;100.00
47985;BME280;33753;52.912;-7.342;2023-02-14T01:21:29;101222.38;;;6.39;100.00
47985;BME280;33753;52.912;-7.342;2023-02-14T01:23:59;101213.94;;;6.44;100.00
47985;BME280;33753;52.912;-7.342;2023-02-14T01:26:27;101211.97;;;6.46;100.00
47985;BME280;33753;52.912;-7.342;2023-02-14T01:28:59;101202.44;;;6.42;100.00
47985;BME280;33753;52.912;-7.342;2023-02-14T01:31:29;101202.69;;;6.38;100.00
47985;BME280;33753;52.912;-7.342;2023-02-14T01:33:58;101211.75;;;6.37;100.00
47985;BME280;33753;52.912;-7.342;2023-02-14T01:36:29;101210.50;;;6.42;100.00
47985;BME280;33753;52.912;-7.342;2023-02-14T01:38:59;101200.09;;;6.48;100.00
47985;BME280;33753;52.912;-7.342;2023-02-14T01:41:28;101196.31;;;6.51;100.00
47985;BME280;33753;52.912;-7.342;2023-02-14T01:43:58;101181.13;;;6.61;100.00
47985;BME280;33753;52.912;-7.342;2023-02-14T01:46:27;101178.53;;;6.71;100.00
47985;BME280;33753;52.912;-7.342;2023-02-14T01:48:57;101158.19;;;6.78;100.00
47985;BME280;33753;52.912;-7.342;2023-02-14T01:51:29;101156.69;;;6.85;100.00
47985;BME280;33753;52.912;-7.342;2023-02-14T01:53:59;101144.84;;;6.88;100.00
47985;BME280;33753;52.912;-7.342;2023-02-14T01:56:29;101142.63;;;6.93;100.00
47985;BME280;33753;52.912;-7.342;2023-02-14T01:59:00;101132.84;;;6.92;100.00
47985;BME280;33753;52.912;-7.342;2023-02-14T02:01:30;101125.03;;;6.89;100.00
47985;BME280;33753;52.912;-7.342;2023-02-14T02:04:00;101108.91;;;6.89;100.00
47985;BME280;33753;52.912;-7.342;2023-02-14T02:06:31;101101.94;;;6.86;100.00
47985;BME280;33753;52.912;-7.342;2023-02-14T02:09:06;101107.47;;;6.85;100.00
47985;BME280;33753;52.912;-7.342;2023-02-14T02:11:36;101106.59;;;6.84;100.00
47985;BME280;33753;52.912;-7.342;2023-02-14T02:14:04;101105.75;;;6.84;100.00
47985;BME280;33753;52.912;-7.342;2023-02-14T02:22:15;101117.94;;;6.88;100.00
47985;BME280;33753;52.912;-7.342;2023-02-14T02:24:47;101110.84;;;6.87;100.00
47985;BME280;33753;52.912;-7.342;2023-02-14T02:27:32;101125.03;;;6.89;100.00
47985;BME280;33753;52.912;-7.342;2023-02-14T02:30:20;101118.66;;;6.90;100.00
47985;BME280;33753;52.912;-7.342;2023-02-14T02:38:38;101108.38;;;6.95;100.00
47985;BME280;33753;52.912;-7.342;2023-02-14T02:41:13;101110.66;;;7.00;100.00
47985;BME280;33753;52.912;-7.342;2023-02-14T02:43:43;101106.56;;;7.05;100.00
47985;BME280;33753;52.912;-7.342;2023-02-14T02:46:19;101108.88;;;7.10;100.00
47985;BME280;33753;52.912;-7.342;2023-02-14T02:49:11;101117.00;;;7.20;100.00
47985;BME280;33753;52.912;-7.342;2023-02-14T02:52:01;101102.03;;;7.27;100.00
47985;BME280;33753;52.912;-7.342;2023-02-14T02:54:51;101103.72;;;7.28;100.00
47985;BME280;33753;52.912;-7.342;2023-02-14T02:57:21;101105.88;;;7.34;100.00
47985;BME280;33753;52.912;-7.342;2023-02-14T02:59:51;101093.72;;;7.40;100.00
47985;BME280;33753;52.912;-7.342;2023-02-14T03:02:23;101098.13;;;7.41;100.00
47985;BME280;33753;52.912;-7.342;2023-02-14T03:04:53;101099.56;;;7.45;100.00
47985;BME280;33753;52.912;-7.342;2023-02-14T03:07:28;101088.78;;;7.45;100.00
47985;BME280;33753;52.912;-7.342;2023-02-14T03:10:10;101085.97;;;7.47;100.00
47985;BME280;33753;52.912;-7.342;2023-02-14T03:12:54;101076.63;;;7.51;100.00
47985;BME280;33753;52.912;-7.342;2023-02-14T03:15:33;101084.28;;;7.55;100.00
47985;BME280;33753;52.912;-7.342;2023-02-14T03:18:05;101082.34;;;7.57;100.00
47985;BME280;33753;52.912;-7.342;2023-02-14T03:20:43;101079.09;;;7.64;100.00
47985;BME280;33753;52.912;-7.342;2023-02-14T03:23:13;101073.56;;;7.65;100.00
47985;BME280;33753;52.912;-7.342;2023-02-14T03:25:48;101075.28;;;7.66;100.00
47985;BME280;33753;52.912;-7.342;2023-02-14T03:28:19;101078.38;;;7.71;100.00
47985;BME280;33753;52.912;-7.342;2023-02-14T03:30:51;101076.13;;;7.76;100.00
47985;BME280;33753;52.912;-7.342;2023-02-14T03:33:26;101072.19;;;7.81;100.00
47985;BME280;33753;52.912;-7.342;2023-02-14T03:35:58;101065.94;;;7.80;100.00
47985;BME280;33753;52.912;-7.342;2023-02-14T03:38:30;101062.84;;;7.85;100.00
47985;BME280;33753;52.912;-7.342;2023-02-14T03:41:04;101062.56;;;7.88;100.00
47985;BME280;33753;52.912;-7.342;2023-02-14T03:43:35;101064.28;;;7.89;100.00
47985;BME280;33753;52.912;-7.342;2023-02-14T03:46:05;101047.81;;;7.92;100.00
47985;BME280;33753;52.912;-7.342;2023-02-14T03:48:36;101053.75;;;7.95;100.00
47985;BME280;33753;52.912;-7.342;2023-02-14T03:51:05;101038.47;;;7.96;100.00
47985;BME280;33753;52.912;-7.342;2023-02-14T03:53:36;101052.50;;;8.00;100.00
47985;BME280;33753;52.912;-7.342;2023-02-14T03:56:09;101043.56;;;7.99;100.00
47985;BME280;33753;52.912;-7.342;2023-02-14T03:58:41;101052.63;;;7.98;100.00
47985;BME280;33753;52.912;-7.342;2023-02-14T04:01:11;101050.78;;;7.99;100.00
47985;BME280;33753;52.912;-7.342;2023-02-14T04:03:41;101057.47;;;8.04;100.00
47985;BME280;33753;52.912;-7.342;2023-02-14T04:06:10;101050.38;;;8.03;100.00
47985;BME280;33753;52.912;-7.342;2023-02-14T04:08:38;101055.63;;;8.05;100.00
47985;BME280;33753;52.912;-7.342;2023-02-14T04:11:08;101059.91;;;8.07;100.00
47985;BME280;33753;52.912;-7.342;2023-02-14T04:13:37;101058.59;;;8.11;100.00
47985;BME280;33753;52.912;-7.342;2023-02-14T04:16:05;101059.31;;;8.13;100.00
47985;BME280;33753;52.912;-7.342;2023-02-14T04:18:34;101066.84;;;8.20;100.00
47985;BME280;33753;52.912;-7.342;2023-02-14T04:21:19;101062.88;;;8.24;100.00
47985;BME280;33753;52.912;-7.342;2023-02-14T04:23:47;101063.44;;;8.27;100.00
47985;BME280;33753;52.912;-7.342;2023-02-14T04:26:17;101073.38;;;8.27;100.00
47985;BME280;33753;52.912;-7.342;2023-02-14T04:28:45;101064.72;;;8.33;100.00
47985;BME280;33753;52.912;-7.342;2023-02-14T04:31:13;101067.44;;;8.33;100.00
47985;BME280;33753;52.912;-7.342;2023-02-14T04:33:43;101058.03;;;8.37;100.00
47985;BME280;33753;52.912;-7.342;2023-02-14T04:36:11;101049.94;;;8.37;100.00
47985;BME280;33753;52.912;-7.342;2023-02-14T04:38:40;101058.91;;;8.38;100.00
47985;BME280;33753;52.912;-7.342;2023-02-14T04:41:08;101060.91;;;8.45;100.00
47985;BME280;33753;52.912;-7.342;2023-02-14T04:43:38;101056.63;;;8.43;100.00
47985;BME280;33753;52.912;-7.342;2023-02-14T04:46:06;101051.84;;;8.46;100.00
47985;BME280;33753;52.912;-7.342;2023-02-14T04:48:34;101066.00;;;8.48;100.00
47985;BME280;33753;52.912;-7.342;2023-02-14T04:51:03;101040.63;;;8.51;100.00
47985;BME280;33753;52.912;-7.342;2023-02-14T04:53:32;101056.66;;;8.53;100.00
47985;BME280;33753;52.912;-7.342;2023-02-14T04:56:06;101057.50;;;8.53;100.00
47985;BME280;33753;52.912;-7.342;2023-02-14T04:58:35;101059.03;;;8.56;100.00
47985;BME280;33753;52.912;-7.342;2023-02-14T05:01:04;101060.06;;;8.55;100.00
47985;BME280;33753;52.912;-7.342;2023-02-14T05:03:33;101060.06;;;8.55;100.00
47985;BME280;33753;52.912;-7.342;2023-02-14T05:06:01;101063.31;;;8.48;100.00
47985;BME280;33753;52.912;-7.342;2023-02-14T05:08:30;101069.56;;;8.49;100.00
47985;BME280;33753;52.912;-7.342;2023-02-14T05:10:58;101072.56;;;8.46;100.00
47985;BME280;33753;52.912;-7.342;2023-02-14T05:13:26;101075.38;;;8.44;100.00
47985;BME280;33753;52.912;-7.342;2023-02-14T05:15:55;101057.50;;;8.43;100.00
47985;BME280;33753;52.912;-7.342;2023-02-14T05:18:25;101061.78;;;8.46;100.00
47985;BME280;33753;52.912;-7.342;2023-02-14T05:20:53;101068.84;;;8.47;100.00
47985;BME280;33753;52.912;-7.342;2023-02-14T05:23:21;101066.00;;;8.48;100.00
47985;BME280;33753;52.912;-7.342;2023-02-14T05:25:50;101064.59;;;8.44;100.00
47985;BME280;33753;52.912;-7.342;2023-02-14T05:28:19;101071.69;;;8.45;100.00
47985;BME280;33753;52.912;-7.342;2023-02-14T05:30:48;101083.19;;;8.47;100.00
47985;BME280;33753;52.912;-7.342;2023-02-14T05:33:17;101094.00;;;8.47;100.00
47985;BME280;33753;52.912;-7.342;2023-02-14T05:35:47;101097.91;;;8.43;100.00
47985;BME280;33753;52.912;-7.342;2023-02-14T05:38:15;101090.56;;;8.45;100.00
47985;BME280;33753;52.912;-7.342;2023-02-14T05:40:44;101088.84;;;8.44;100.00
47985;BME280;33753;52.912;-7.342;2023-02-14T05:43:12;101089.56;;;8.46;100.00
47985;BME280;33753;52.912;-7.342;2023-02-14T05:45:41;101084.19;;;8.46;100.00
47985;BME280;33753;52.912;-7.342;2023-02-14T05:48:10;101084.88;;;8.48;100.00
47985;BME280;33753;52.912;-7.342;2023-02-14T05:50:38;101091.69;;;8.53;100.00
47985;BME280;33753;52.912;-7.342;2023-02-14T05:53:09;101090.72;;;8.54;100.00
47985;BME280;33753;52.912;-7.342;2023-02-14T05:55:37;101090.72;;;8.54;100.00
47985;BME280;33753;52.912;-7.342;2023-02-14T05:58:06;101083.31;;;8.56;100.00
47985;BME280;33753;52.912;-7.342;2023-02-14T06:00:34;101087.72;;;8.57;100.00
47985;BME280;33753;52.912;-7.342;2023-02-14T06:03:06;101091.16;;;8.59;100.00
47985;BME280;33753;52.912;-7.342;2023-02-14T06:05:34;101088.44;;;8.59;100.00
47985;BME280;33753;52.912;-7.342;2023-02-14T06:08:03;101090.13;;;8.60;100.00
47985;BME280;33753;52.912;-7.342;2023-02-14T06:10:32;101100.63;;;8.63;100.00
47985;BME280;33753;52.912;-7.342;2023-02-14T06:13:01;101103.47;;;8.61;100.00
47985;BME280;33753;52.912;-7.342;2023-02-14T06:15:35;101093.41;;;8.63;100.00
47985;BME280;33753;52.912;-7.342;2023-02-14T06:18:03;101087.03;;;8.64;100.00
47985;BME280;33753;52.912;-7.342;2023-02-14T06:20:32;101090.41;;;8.67;100.00
47985;BME280;33753;52.912;-7.342;2023-02-14T06:23:00;101078.34;;;8.71;100.00
47985;BME280;33753;52.912;-7.342;2023-02-14T06:25:28;101087.56;;;8.68;100.00
47985;BME280;33753;52.912;-7.342;2023-02-14T06:27:58;101091.69;;;8.72;100.00
47985;BME280;33753;52.912;-7.342;2023-02-14T06:30:26;101077.91;;;8.75;100.00
47985;BME280;33753;52.912;-7.342;2023-02-14T06:32:55;101086.16;;;8.74;100.00
47985;BME280;33753;52.912;-7.342;2023-02-14T06:35:23;101085.31;;;8.73;100.00
47985;BME280;33753;52.912;-7.342;2023-02-14T06:37:52;101079.63;;;8.76;100.00
47985;BME280;33753;52.912;-7.342;2023-02-14T06:40:20;101091.25;;;8.77;100.00
47985;BME280;33753;52.912;-7.342;2023-02-14T06:42:49;101085.56;;;8.80;100.00
47985;BME280;33753;52.912;-7.342;2023-02-14T06:45:20;101083.88;;;8.79;100.00
47985;BME280;33753;52.912;-7.342;2023-02-14T06:47:48;101088.09;;;8.81;100.00
47985;BME280;33753;52.912;-7.342;2023-02-14T06:50:16;101083.72;;;8.80;100.00
47985;BME280;33753;52.912;-7.342;2023-02-14T06:52:44;101089.81;;;8.82;100.00
47985;BME280;33753;52.912;-7.342;2023-02-14T06:55:13;101094.22;;;8.84;100.00
47985;BME280;33753;52.912;-7.342;2023-02-14T06:57:41;101096.63;;;8.87;100.00
47985;BME280;33753;52.912;-7.342;2023-02-14T07:00:10;101101.88;;;8.88;100.00
47985;BME280;33753;52.912;-7.342;2023-02-14T07:02:42;101125.03;;;8.91;100.00
47985;BME280;33753;52.912;-7.342;2023-02-14T07:05:10;101120.47;;;8.91;100.00
47985;BME280;33753;52.912;-7.342;2023-02-14T07:07:39;101116.78;;;8.92;100.00
47985;BME280;33753;52.912;-7.342;2023-02-14T07:10:07;101101.19;;;8.96;100.00
47985;BME280;33753;52.912;-7.342;2023-02-14T07:12:35;101104.56;;;8.98;100.00
47985;BME280;33753;52.912;-7.342;2023-02-14T07:15:05;101108.25;;;8.97;100.00
47985;BME280;33753;52.912;-7.342;2023-02-14T07:17:33;101104.56;;;8.98;100.00
47985;BME280;33753;52.912;-7.342;2023-02-14T07:20:04;101098.88;;;9.01;100.00
47985;BME280;33753;52.912;-7.342;2023-02-14T07:22:33;101093.47;;;9.01;100.00
47985;BME280;33753;52.912;-7.342;2023-02-14T07:25:01;101103.44;;;9.01;100.00
47985;BME280;33753;52.912;-7.342;2023-02-14T07:27:30;101098.56;;;9.04;100.00
47985;BME280;33753;52.912;-7.342;2023-02-14T07:29:58;101099.00;;;9.09;100.00
47985;BME280;33753;52.912;-7.342;2023-02-14T07:32:26;101094.59;;;9.08;100.00
47985;BME280;33753;52.912;-7.342;2023-02-14T07:34:54;101099.00;;;9.09;100.00
47985;BME280;33753;52.912;-7.342;2023-02-14T07:37:24;101105.38;;;9.08;100.00
47985;BME280;33753;52.912;-7.342;2023-02-14T07:39:52;101104.69;;;9.06;100.00
47985;BME280;33753;52.912;-7.342;2023-02-14T07:42:21;101120.59;;;9.09;100.00
47985;BME280;33753;52.912;-7.342;2023-02-14T07:44:49;101120.75;;;9.08;100.00
47985;BME280;33753;52.912;-7.342;2023-02-14T07:47:17;101118.44;;;9.13;100.00
47985;BME280;33753;52.912;-7.342;2023-02-14T07:49:46;101113.91;;;9.13;100.00
47985;BME280;33753;52.912;-7.342;2023-02-14T07:52:14;101117.31;;;9.15;100.00
47985;BME280;33753;52.912;-7.342;2023-02-14T07:54:44;101124.94;;;9.20;100.00
47985;BME280;33753;52.912;-7.342;2023-02-14T07:57:13;101125.09;;;9.19;100.00
47985;BME280;33753;52.912;-7.342;2023-02-14T07:59:41;101129.50;;;9.20;100.00
47985;BME280;33753;52.912;-7.342;2023-02-14T08:02:09;101135.47;;;9.23;100.00
47985;BME280;33753;52.912;-7.342;2023-02-14T08:04:39;101150.81;;;9.23;100.00
47985;BME280;33753;52.912;-7.342;2023-02-14T08:07:07;101158.06;;;9.22;100.00
47985;BME280;33753;52.912;-7.342;2023-02-14T08:09:36;101147.28;;;9.22;100.00
47985;BME280;33753;52.912;-7.342;2023-02-14T08:12:06;101148.53;;;9.28;100.00
47985;BME280;33753;52.912;-7.342;2023-02-14T08:14:52;101158.47;;;9.27;100.00
47985;BME280;33753;52.912;-7.342;2023-02-14T08:17:20;101162.03;;;9.28;100.00
47985;BME280;33753;52.912;-7.342;2023-02-14T08:19:48;101152.66;;;9.32;100.00
47985;BME280;33753;52.912;-7.342;2023-02-14T08:22:17;101151.09;;;9.29;100.00
47985;BME280;33753;52.912;-7.342;2023-02-14T08:24:45;101139.44;;;9.29;100.00
47985;BME280;33753;52.912;-7.342;2023-02-14T08:27:15;101150.25;;;9.29;100.00
47985;BME280;33753;52.912;-7.342;2023-02-14T08:29:43;101144.69;;;9.30;100.00
47985;BME280;33753;52.912;-7.342;2023-02-14T08:32:12;101148.81;;;9.34;100.00
47985;BME280;33753;52.912;-7.342;2023-02-14T08:34:41;101152.78;;;9.30;100.00
47985;BME280;33753;52.912;-7.342;2023-02-14T08:37:10;101138.13;;;9.33;100.00
47985;BME280;33753;52.912;-7.342;2023-02-14T08:39:38;101136.44;;;9.32;100.00
47985;BME280;33753;52.912;-7.342;2023-02-14T08:42:07;101137.13;;;9.34;100.00
47985;BME280;33753;52.912;-7.342;2023-02-14T08:44:36;101131.75;;;9.34;100.00
47985;BME280;33753;52.912;-7.342;2023-02-14T08:47:05;101140.41;;;9.38;100.00
47985;BME280;33753;52.912;-7.342;2023-02-14T08:49:33;101139.38;;;9.39;100.00
47985;BME280;33753;52.912;-7.342;2023-02-14T08:52:01;101135.69;;;9.40;100.00
47985;BME280;33753;52.912;-7.342;2023-02-14T08:54:30;101142.09;;;9.39;100.00
47985;BME280;33753;52.912;-7.342;2023-02-14T08:56:58;101158.19;;;9.40;100.00
47985;BME280;33753;52.912;-7.342;2023-02-14T08:59:29;101147.38;;;9.40;100.00
47985;BME280;33753;52.912;-7.342;2023-02-14T09:01:59;101151.44;;;9.44;100.00
47985;BME280;33753;52.912;-7.342;2023-02-14T09:04:27;101148.06;;;9.42;100.00
47985;BME280;33753;52.912;-7.342;2023-02-14T09:06:55;101161.25;;;9.45;100.00
47985;BME280;33753;52.912;-7.342;2023-02-14T09:09:24;101144.06;;;9.46;100.00
47985;BME280;33753;52.912;-7.342;2023-02-14T09:11:52;101151.31;;;9.46;100.00
47985;BME280;33753;52.912;-7.342;2023-02-14T09:14:21;101149.47;;;9.46;100.00
47985;BME280;33753;52.912;-7.342;2023-02-14T09:16:50;101147.31;;;9.50;100.00
47985;BME280;33753;52.912;-7.342;2023-02-14T09:19:20;101143.78;;;9.49;100.00
47985;BME280;33753;52.912;-7.342;2023-02-14T09:21:51;101150.75;;;9.52;100.00
47985;BME280;33753;52.912;-7.342;2023-02-14T09:24:19;101149.44;;;9.56;100.00
47985;BME280;33753;52.912;-7.342;2023-02-14T09:26:47;101152.97;;;9.57;100.00
47985;BME280;33753;52.912;-7.342;2023-02-14T09:29:15;101152.97;;;9.57;100.00
47985;BME280;33753;52.912;-7.342;2023-02-14T09:31:44;101157.09;;;9.61;100.00
47985;BME280;33753;52.912;-7.342;2023-02-14T09:34:12;101152.69;;;9.60;100.00
47985;BME280;33753;52.912;-7.342;2023-02-14T09:36:42;101150.69;;;9.62;100.00
47985;BME280;33753;52.912;-7.342;2023-02-14T09:39:30;101151.53;;;9.62;100.00
47985;BME280;33753;52.912;-7.342;2023-02-14T09:42:09;101153.09;;;9.65;100.00
47985;BME280;33753;52.912;-7.342;2023-02-14T09:44:41;101158.50;;;9.65;100.00
47985;BME280;33753;52.912;-7.342;2023-02-14T09:47:14;101152.38;;;9.63;100.00
47985;BME280;33753;52.912;-7.342;2023-02-14T09:49:44;101150.94;;;9.68;100.00
47985;BME280;33753;52.912;-7.342;2023-02-14T09:52:15;101139.00;;;9.71;100.00
47985;BME280;33753;52.912;-7.342;2023-02-14T09:54:46;101158.34;;;9.66;100.00
47985;BME280;33753;52.912;-7.342;2023-02-14T09:57:20;101150.38;;;9.75;100.00
47985;BME280;33753;52.912;-7.342;2023-02-14T09:59:51;101152.34;;;9.73;100.00
47985;BME280;33753;52.912;-7.342;2023-02-14T10:02:24;101160.59;;;9.71;100.00
47985;BME280;33753;52.912;-7.342;2023-02-14T10:05:01;101155.06;;;9.73;100.00
47985;BME280;33753;52.912;-7.342;2023-02-14T10:07:35;101157.44;;;9.76;100.00
47985;BME280;33753;52.912;-7.342;2023-02-14T10:10:07;101160.31;;;9.74;100.00
47985;BME280;33753;52.912;-7.342;2023-02-14T10:12:41;101147.81;;;9.73;100.00
47985;BME280;33753;52.912;-7.342;2023-02-14T10:15:13;101148.34;;;9.77;100.00
47985;BME280;33753;52.912;-7.342;2023-02-14T10:17:43;101156.59;;;9.75;100.00
47985;BME280;33753;52.912;-7.342;2023-02-14T10:20:18;101146.38;;;9.79;100.00
47985;BME280;33753;52.912;-7.342;2023-02-14T10:22:53;101147.50;;;9.76;100.00
47985;BME280;33753;52.912;-7.342;2023-02-14T10:25:23;101155.31;;;9.79;100.00
47985;BME280;33753;52.912;-7.342;2023-02-14T10:27:53;101152.16;;;9.84;100.00
47985;BME280;33753;52.912;-7.342;2023-02-14T10:30:23;101157.41;;;9.85;100.00
47985;BME280;33753;52.912;-7.342;2023-02-14T10:32:55;101167.06;;;9.88;100.00
47985;BME280;33753;52.912;-7.342;2023-02-14T10:35:28;101155.13;;;9.91;100.00
47985;BME280;33753;52.912;-7.342;2023-02-14T10:38:02;101147.47;;;9.86;100.00
47985;BME280;33753;52.912;-7.342;2023-02-14T10:40:34;101150.69;;;9.90;100.00
47985;BME280;33753;52.912;-7.342;2023-02-14T10:43:08;101147.38;;;9.96;100.00
47985;BME280;33753;52.912;-7.342;2023-02-14T10:45:39;101144.56;;;9.97;100.00
47985;BME280;33753;52.912;-7.342;2023-02-14T10:48:13;101144.00;;;9.94;100.00
47985;BME280;33753;52.912;-7.342;2023-02-14T10:50:46;101140.00;;;9.98;100.00
47985;BME280;33753;52.912;-7.342;2023-02-14T10:53:20;101148.78;;;10.00;100.00
47985;BME280;33753;52.912;-7.342;2023-02-14T10:55:51;101147.81;;;10.01;100.00
47985;BME280;33753;52.912;-7.342;2023-02-14T10:58:23;101125.19;;;10.02;100.00
47985;BME280;33753;52.912;-7.342;2023-02-14T11:00:55;101138.81;;;10.10;100.00
47985;BME280;33753;52.912;-7.342;2023-02-14T11:03:26;101133.09;;;10.13;100.00
47985;BME280;33753;52.912;-7.342;2023-02-14T11:05:55;101144.22;;;10.10;100.00
47985;BME280;33753;52.912;-7.342;2023-02-14T11:08:26;101141.56;;;10.18;100.00
47985;BME280;33753;52.912;-7.342;2023-02-14T11:10:59;101139.91;;;10.17;100.00
47985;BME280;33753;52.912;-7.342;2023-02-14T11:13:31;101145.31;;;10.17;100.00
47985;BME280;33753;52.912;-7.342;2023-02-14T11:16:01;101140.44;;;10.21;100.00
47985;BME280;33753;52.912;-7.342;2023-02-14T11:18:29;101137.72;;;10.21;100.00
47985;BME280;33753;52.912;-7.342;2023-02-14T11:21:04;101142.34;;;10.29;100.00
47985;BME280;33753;52.912;-7.342;2023-02-14T11:23:36;101137.81;;;10.29;100.00
47985;BME280;33753;52.912;-7.342;2023-02-14T11:26:08;101123.22;;;10.40;100.00
47985;BME280;33753;52.912;-7.342;2023-02-14T11:28:42;101137.16;;;10.45;100.00
47985;BME280;33753;52.912;-7.342;2023-02-14T11:31:12;101129.97;;;10.54;100.00
47985;BME280;33753;52.912;-7.342;2023-02-14T11:33:41;101124.78;;;10.61;100.00
47985;BME280;33753;52.912;-7.342;2023-02-14T11:36:12;101136.69;;;10.68;100.00
47985;BME280;33753;52.912;-7.342;2023-02-14T11:38:44;101128.25;;;10.71;100.00
47985;BME280;33753;52.912;-7.342;2023-02-14T11:41:12;101115.16;;;10.84;100.00
47985;BME280;33753;52.912;-7.342;2023-02-14T11:43:43;101116.22;;;10.92;100.00
47985;BME280;33753;52.912;-7.342;2023-02-14T11:46:15;101095.97;;;10.96;100.00
47985;BME280;33753;52.912;-7.342;2023-02-14T11:48:56;101091.00;;;11.09;100.00
47985;BME280;33753;52.912;-7.342;2023-02-14T11:51:26;101083.13;;;11.24;100.00
47985;BME280;33753;52.912;-7.342;2023-02-14T11:53:56;101080.31;;;11.34;100.00
47985;BME280;33753;52.912;-7.342;2023-02-14T11:56:43;101066.44;;;11.37;100.00
47985;BME280;33753;52.912;-7.342;2023-02-14T11:59:23;101041.44;;;11.51;100.00
47985;BME280;33753;52.912;-7.342;2023-02-14T12:01:53;101029.97;;;11.57;100.00
47985;BME280;33753;52.912;-7.342;2023-02-14T12:04:23;101024.22;;;11.61;100.00
47985;BME280;33753;52.912;-7.342;2023-02-14T12:06:59;101016.06;;;11.69;100.00
47985;BME280;33753;52.912;-7.342;2023-02-14T12:09:40;100999.53;;;11.88;100.00
47985;BME280;33753;52.912;-7.342;2023-02-14T12:12:14;100985.34;;;12.03;100.00
47985;BME280;33753;52.912;-7.342;2023-02-14T12:14:43;100977.03;;;12.04;100.00
47985;BME280;33753;52.912;-7.342;2023-02-14T12:17:15;100979.28;;;12.09;100.00
47985;BME280;33753;52.912;-7.342;2023-02-14T12:19:47;100955.69;;;12.26;100.00
47985;BME280;33753;52.912;-7.342;2023-02-14T12:22:18;100959.56;;;12.48;100.00
47985;BME280;33753;52.912;-7.342;2023-02-14T12:24:50;100952.06;;;12.75;100.00
47985;BME280;33753;52.912;-7.342;2023-02-14T12:27:21;100939.09;;;12.93;100.00
47985;BME280;33753;52.912;-7.342;2023-02-14T12:29:52;100924.16;;;12.98;100.00
47985;BME280;33753;52.912;-7.342;2023-02-14T12:32:22;100916.72;;;12.83;100.00
47985;BME280;33753;52.912;-7.342;2023-02-14T12:34:52;100907.28;;;12.71;100.00
47985;BME280;33753;52.912;-7.342;2023-02-14T12:37:27;100914.09;;;12.58;100.00
47985;BME280;33753;52.912;-7.342;2023-02-14T12:40:04;100907.38;;;12.38;100.00
47985;BME280;33753;52.912;-7.342;2023-02-14T12:42:45;100905.66;;;12.37;100.00
47985;BME280;33753;52.912;-7.342;2023-02-14T12:45:16;100904.13;;;12.34;100.00
47985;BME280;33753;52.912;-7.342;2023-02-14T12:47:49;100906.66;;;12.44;100.00
47985;BME280;33753;52.912;-7.342;2023-02-14T12:50:21;100899.00;;;12.56;100.00
47985;BME280;33753;52.912;-7.342;2023-02-14T12:52:57;100880.63;;;12.74;100.00
47985;BME280;33753;52.912;-7.342;2023-02-14T12:55:32;100893.94;;;13.01;100.00
47985;BME280;33753;52.912;-7.342;2023-02-14T12:58:04;100901.56;;;12.97;100.00
47985;BME280;33753;52.912;-7.342;2023-02-14T13:00:41;100890.59;;;12.90;100.00
47985;BME280;33753;52.912;-7.342;2023-02-14T13:03:28;100885.16;;;12.90;100.00
47985;BME280;33753;52.912;-7.342;2023-02-14T13:06:02;100885.44;;;13.04;100.00
47985;BME280;33753;52.912;-7.342;2023-02-14T13:08:36;100880.00;;;13.04;100.00